sensor_id;sensor_type;location;lat;lon;timestamp;temperature;humidity
14236;DHT22;7202;50.718;7.072;2023-02-01T00:01:31;6.20;99.90
14236;DHT22;7202;50.718;7.072;2023-02-01T00:03:59;6.20;99.90
14236;DHT22;7202;50.718;7.072;2023-02-01T00:06:28;6.20;99.90
14236;DHT22;7202;50.718;7.072;2023-02-01T00:08:57;6.10;99.90
14236;DHT22;7202;50.718;7.072;2023-02-01T00:11:25;6.10;99.90
14236;DHT22;7202;50.718;7.072;2023-02-01T00:13:57;6.10;99.90
14236;DHT22;7202;50.718;7.072;2023-02-01T00:16:27;6.00;99.90
14236;DHT22;7202;50.718;7.072;2023-02-01T00:18:58;6.00;99.90
14236;DHT22;7202;50.718;7.072;2023-02-01T00:21:27;5.90;99.90
14236;DHT22;7202;50.718;7.072;2023-02-01T00:23:56;5.90;99.90
14236;DHT22;7202;50.718;7.072;2023-02-01T00:26:29;5.90;99.90
14236;DHT22;7202;50.718;7.072;2023-02-01T00:29:00;5.90;99.90
14236;DHT22;7202;50.718;7.072;2023-02-01T00:31:29;5.90;99.90
14236;DHT22;7202;50.718;7.072;2023-02-01T00:33:58;5.90;99.90
14236;DHT22;7202;50.718;7.072;2023-02-01T00:36:26;5.90;99.90
14236;DHT22;7202;50.718;7.072;2023-02-01T00:38:55;5.90;99.90
14236;DHT22;7202;50.718;7.072;2023-02-01T00:41:25;5.90;99.90
14236;DHT22;7202;50.718;7.072;2023-02-01T00:43:54;6.00;99.90
14236;DHT22;7202;50.718;7.072;2023-02-01T00:46:24;6.00;99.90
14236;DHT22;7202;50.718;7.072;2023-02-01T00:48:54;6.10;99.90
14236;DHT22;7202;50.718;7.072;2023-02-01T00:51:25;6.10;99.90
14236;DHT22;7202;50.718;7.072;2023-02-01T00:53:55;6.20;99.90
14236;DHT22;7202;50.718;7.072;2023-02-01T00:56:25;6.30;99.90
14236;DHT22;7202;50.718;7.072;2023-02-01T00:58:54;6.30;99.90
14236;DHT22;7202;50.718;7.072;2023-02-01T01:01:26;6.40;99.90
14236;DHT22;7202;50.718;7.072;2023-02-01T01:03:56;6.50;99.90
14236;DHT22;7202;50.718;7.072;2023-02-01T01:06:27;6.60;99.90
14236;DHT22;7202;50.718;7.072;2023-02-01T01:08:57;6.60;99.90
14236;DHT22;7202;50.718;7.072;2023-02-01T01:11:28;6.60;99.90
14236;DHT22;7202;50.718;7.072;2023-02-01T01:13:58;6.60;99.90
14236;DHT22;7202;50.718;7.072;2023-02-01T01:16:30;6.60;99.90
14236;DHT22;7202;50.718;7.072;2023-02-01T01:18:59;6.70;99.90
14236;DHT22;7202;50.718;7.072;2023-02-01T01:21:28;6.70;99.90
14236;DHT22;7202;50.718;7.072;2023-02-01T01:23:57;6.80;99.90
14236;DHT22;7202;50.718;7.072;2023-02-01T01:26:27;6.80;99.90
14236;DHT22;7202;50.718;7.072;2023-02-01T01:28:56;6.80;99.90
14236;DHT22;7202;50.718;7.072;2023-02-01T01:31:27;6.70;99.90
14236;DHT22;7202;50.718;7.072;2023-02-01T01:33:58;6.70;99.90
14236;DHT22;7202;50.718;7.072;2023-02-01T01:36:29;6.70;99.90
14236;DHT22;7202;50.718;7.072;2023-02-01T01:38:57;6.70;99.90
14236;DHT22;7202;50.718;7.072;2023-02-01T01:41:29;6.70;99.90
14236;DHT22;7202;50.718;7.072;2023-02-01T01:44:04;6.70;99.90
14236;DHT22;7202;50.718;7.072;2023-02-01T01:46:37;6.70;99.90
14236;DHT22;7202;50.718;7.072;2023-02-01T01:49:10;6.70;99.90
14236;DHT22;7202;50.718;7.072;2023-02-01T01:51:42;6.70;99.90
14236;DHT22;7202;50.718;7.072;2023-02-01T01:54:15;6.60;99.90
14236;DHT22;7202;50.718;7.072;2023-02-01T01:56:46;6.70;99.90
14236;DHT22;7202;50.718;7.072;2023-02-01T01:59:17;6.70;99.90
14236;DHT22;7202;50.718;7.072;2023-02-01T02:01:47;6.60;99.90
14236;DHT22;7202;50.718;7.072;2023-02-01T02:04:16;6.60;99.90
14236;DHT22;7202;50.718;7.072;2023-02-01T02:06:48;6.60;99.90
14236;DHT22;7202;50.718;7.072;2023-02-01T02:09:18;6.60;99.90
14236;DHT22;7202;50.718;7.072;2023-02-01T02:11:48;6.60;99.90
14236;DHT22;7202;50.718;7.072;2023-02-01T02:14:20;6.60;99.90
14236;DHT22;7202;50.718;7.072;2023-02-01T02:17:01;6.60;99.90
14236;DHT22;7202;50.718;7.072;2023-02-01T02:25:59;6.50;99.90
14236;DHT22;7202;50.718;7.072;2023-02-01T02:29:00;6.50;99.90
14236;DHT22;7202;50.718;7.072;2023-02-01T02:31:45;6.50;99.90
14236;DHT22;7202;50.718;7.072;2023-02-01T02:34:22;6.50;99.90
14236;DHT22;7202;50.718;7.072;2023-02-01T02:37:01;6.50;99.90
14236;DHT22;7202;50.718;7.072;2023-02-01T02:39:40;6.50;99.90
14236;DHT22;7202;50.718;7.072;2023-02-01T02:42:18;6.50;99.90
14236;DHT22;7202;50.718;7.072;2023-02-01T02:45:09;6.50;99.90
14236;DHT22;7202;50.718;7.072;2023-02-01T02:48:06;6.50;99.90
14236;DHT22;7202;50.718;7.072;2023-02-01T02:50:42;6.50;99.90
14236;DHT22;7202;50.718;7.072;2023-02-01T02:53:35;6.50;99.90
14236;DHT22;7202;50.718;7.072;2023-02-01T02:56:23;6.50;99.90
14236;DHT22;7202;50.718;7.072;2023-02-01T02:59:14;6.50;99.90
14236;DHT22;7202;50.718;7.072;2023-02-01T03:02:01;6.50;99.90
14236;DHT22;7202;50.718;7.072;2023-02-01T03:04:52;6.50;99.90
14236;DHT22;7202;50.718;7.072;2023-02-01T03:07:54;6.60;99.90
14236;DHT22;7202;50.718;7.072;2023-02-01T03:10:29;6.50;99.90
14236;DHT22;7202;50.718;7.072;2023-02-01T03:13:06;6.50;99.90
14236;DHT22;7202;50.718;7.072;2023-02-01T03:15:39;6.50;99.90
14236;DHT22;7202;50.718;7.072;2023-02-01T03:18:14;6.50;99.90
14236;DHT22;7202;50.718;7.072;2023-02-01T03:20:46;6.50;99.90
14236;DHT22;7202;50.718;7.072;2023-02-01T03:23:20;6.50;99.90
14236;DHT22;7202;50.718;7.072;2023-02-01T03:25:52;6.50;99.90
14236;DHT22;7202;50.718;7.072;2023-02-01T03:28:23;6.50;99.90
14236;DHT22;7202;50.718;7.072;2023-02-01T03:30:54;6.50;99.90
14236;DHT22;7202;50.718;7.072;2023-02-01T03:33:25;6.50;99.90
14236;DHT22;7202;50.718;7.072;2023-02-01T03:36:01;6.50;99.90
14236;DHT22;7202;50.718;7.072;2023-02-01T03:38:39;6.50;99.90
14236;DHT22;7202;50.718;7.072;2023-02-01T03:41:17;6.50;99.90
14236;DHT22;7202;50.718;7.072;2023-02-01T03:43:53;6.50;99.90
14236;DHT22;7202;50.718;7.072;2023-02-01T03:46:27;6.50;99.90
14236;DHT22;7202;50.718;7.072;2023-02-01T03:49:02;6.40;99.90
14236;DHT22;7202;50.718;7.072;2023-02-01T03:51:32;6.40;99.90
14236;DHT22;7202;50.718;7.072;2023-02-01T03:54:04;6.50;99.90
14236;DHT22;7202;50.718;7.072;2023-02-01T03:56:36;6.60;99.90
14236;DHT22;7202;50.718;7.072;2023-02-01T03:59:06;6.60;99.90
14236;DHT22;7202;50.718;7.072;2023-02-01T04:01:35;6.70;99.90
14236;DHT22;7202;50.718;7.072;2023-02-01T04:04:04;6.70;99.90
14236;DHT22;7202;50.718;7.072;2023-02-01T04:06:34;6.80;99.90
14236;DHT22;7202;50.718;7.072;2023-02-01T04:09:05;6.80;99.90
14236;DHT22;7202;50.718;7.072;2023-02-01T04:11:33;6.80;99.90
14236;DHT22;7202;50.718;7.072;2023-02-01T04:14:02;6.80;99.90
14236;DHT22;7202;50.718;7.072;2023-02-01T04:16:32;6.80;99.90
14236;DHT22;7202;50.718;7.072;2023-02-01T04:19:01;6.80;99.90
14236;DHT22;7202;50.718;7.072;2023-02-01T04:21:30;6.80;99.90
14236;DHT22;7202;50.718;7.072;2023-02-01T04:23:58;6.80;99.90
14236;DHT22;7202;50.718;7.072;2023-02-01T04:26:28;6.80;99.90
14236;DHT22;7202;50.718;7.072;2023-02-01T04:28:57;6.80;99.90
14236;DHT22;7202;50.718;7.072;2023-02-01T04:31:26;6.70;99.90
14236;DHT22;7202;50.718;7.072;2023-02-01T04:33:55;6.70;99.90
14236;DHT22;7202;50.718;7.072;2023-02-01T04:36:25;6.80;99.90
14236;DHT22;7202;50.718;7.072;2023-02-01T04:38:53;6.70;99.90
14236;DHT22;7202;50.718;7.072;2023-02-01T04:41:22;6.70;99.90
14236;DHT22;7202;50.718;7.072;2023-02-01T04:43:52;6.70;99.90
14236;DHT22;7202;50.718;7.072;2023-02-01T04:46:21;6.70;99.90
14236;DHT22;7202;50.718;7.072;2023-02-01T04:48:49;6.70;99.90
14236;DHT22;7202;50.718;7.072;2023-02-01T04:51:18;6.60;99.90
14236;DHT22;7202;50.718;7.072;2023-02-01T04:53:47;6.60;99.90
14236;DHT22;7202;50.718;7.072;2023-02-01T04:56:15;6.50;99.90
14236;DHT22;7202;50.718;7.072;2023-02-01T04:58:44;6.50;99.90
14236;DHT22;7202;50.718;7.072;2023-02-01T05:01:14;6.50;99.90
14236;DHT22;7202;50.718;7.072;2023-02-01T05:03:42;6.60;99.90
14236;DHT22;7202;50.718;7.072;2023-02-01T05:06:11;6.50;99.90
14236;DHT22;7202;50.718;7.072;2023-02-01T05:08:40;6.50;99.90
14236;DHT22;7202;50.718;7.072;2023-02-01T05:11:08;6.40;99.90
14236;DHT22;7202;50.718;7.072;2023-02-01T05:13:58;6.40;99.90
14236;DHT22;7202;50.718;7.072;2023-02-01T05:16:30;6.50;99.90
14236;DHT22;7202;50.718;7.072;2023-02-01T05:18:59;6.40;99.90
14236;DHT22;7202;50.718;7.072;2023-02-01T05:21:27;6.30;99.90
14236;DHT22;7202;50.718;7.072;2023-02-01T05:23:56;6.20;99.90
14236;DHT22;7202;50.718;7.072;2023-02-01T05:26:42;6.20;99.90
14236;DHT22;7202;50.718;7.072;2023-02-01T05:29:11;6.30;99.90
14236;DHT22;7202;50.718;7.072;2023-02-01T05:31:41;6.30;99.90
14236;DHT22;7202;50.718;7.072;2023-02-01T05:34:12;6.20;99.90
14236;DHT22;7202;50.718;7.072;2023-02-01T05:36:41;6.20;99.90
14236;DHT22;7202;50.718;7.072;2023-02-01T05:39:10;6.20;99.90
14236;DHT22;7202;50.718;7.072;2023-02-01T05:41:38;6.20;99.90
14236;DHT22;7202;50.718;7.072;2023-02-01T05:44:07;6.20;99.90
14236;DHT22;7202;50.718;7.072;2023-02-01T05:46:36;6.10;99.90
14236;DHT22;7202;50.718;7.072;2023-02-01T05:49:09;6.10;99.90
14236;DHT22;7202;50.718;7.072;2023-02-01T05:51:38;6.00;99.90
14236;DHT22;7202;50.718;7.072;2023-02-01T05:54:08;6.00;99.90
14236;DHT22;7202;50.718;7.072;2023-02-01T05:56:36;5.90;99.90
14236;DHT22;7202;50.718;7.072;2023-02-01T05:59:05;5.90;99.90
14236;DHT22;7202;50.718;7.072;2023-02-01T06:01:33;5.90;99.90
14236;DHT22;7202;50.718;7.072;2023-02-01T06:04:02;5.80;99.90
14236;DHT22;7202;50.718;7.072;2023-02-01T06:06:33;5.90;99.90
14236;DHT22;7202;50.718;7.072;2023-02-01T06:09:04;5.90;99.90
14236;DHT22;7202;50.718;7.072;2023-02-01T06:11:32;5.90;99.90
14236;DHT22;7202;50.718;7.072;2023-02-01T06:14:01;5.80;99.90
14236;DHT22;7202;50.718;7.072;2023-02-01T06:16:30;5.80;99.90
14236;DHT22;7202;50.718;7.072;2023-02-01T06:18:58;5.80;99.90
14236;DHT22;7202;50.718;7.072;2023-02-01T06:21:27;5.90;99.90
14236;DHT22;7202;50.718;7.072;2023-02-01T06:23:57;5.80;99.90
14236;DHT22;7202;50.718;7.072;2023-02-01T06:26:26;5.90;99.90
14236;DHT22;7202;50.718;7.072;2023-02-01T06:28:56;5.70;99.90
14236;DHT22;7202;50.718;7.072;2023-02-01T06:31:25;5.80;99.90
14236;DHT22;7202;50.718;7.072;2023-02-01T06:33:54;5.70;99.90
14236;DHT22;7202;50.718;7.072;2023-02-01T06:36:22;5.70;99.90
14236;DHT22;7202;50.718;7.072;2023-02-01T06:38:51;5.70;99.90
14236;DHT22;7202;50.718;7.072;2023-02-01T06:41:21;5.70;99.90
14236;DHT22;7202;50.718;7.072;2023-02-01T06:43:50;5.70;99.90
14236;DHT22;7202;50.718;7.072;2023-02-01T06:46:19;5.60;99.90
14236;DHT22;7202;50.718;7.072;2023-02-01T06:48:47;5.70;99.90
14236;DHT22;7202;50.718;7.072;2023-02-01T06:51:22;5.70;99.90
14236;DHT22;7202;50.718;7.072;2023-02-01T06:53:51;5.60;99.90
14236;DHT22;7202;50.718;7.072;2023-02-01T06:56:21;5.60;99.90
14236;DHT22;7202;50.718;7.072;2023-02-01T06:58:50;5.60;99.90
14236;DHT22;7202;50.718;7.072;2023-02-01T07:01:19;5.70;99.90
14236;DHT22;7202;50.718;7.072;2023-02-01T07:03:48;5.70;99.90
14236;DHT22;7202;50.718;7.072;2023-02-01T07:06:18;5.70;99.90
14236;DHT22;7202;50.718;7.072;2023-02-01T07:08:47;5.70;99.90
14236;DHT22;7202;50.718;7.072;2023-02-01T07:11:18;5.70;99.90
14236;DHT22;7202;50.718;7.072;2023-02-01T07:13:48;5.70;99.90
14236;DHT22;7202;50.718;7.072;2023-02-01T07:16:18;5.70;99.90
14236;DHT22;7202;50.718;7.072;2023-02-01T07:18:49;5.70;99.90
14236;DHT22;7202;50.718;7.072;2023-02-01T07:21:18;5.70;99.90
14236;DHT22;7202;50.718;7.072;2023-02-01T07:23:46;5.70;99.90
14236;DHT22;7202;50.718;7.072;2023-02-01T07:26:15;5.80;99.90
14236;DHT22;7202;50.718;7.072;2023-02-01T07:28:45;5.80;99.90
14236;DHT22;7202;50.718;7.072;2023-02-01T07:31:17;5.70;99.90
14236;DHT22;7202;50.718;7.072;2023-02-01T07:33:48;5.80;99.90
14236;DHT22;7202;50.718;7.072;2023-02-01T07:36:19;5.80;99.90
14236;DHT22;7202;50.718;7.072;2023-02-01T07:38:48;5.80;99.90
14236;DHT22;7202;50.718;7.072;2023-02-01T07:41:17;5.80;99.90
14236;DHT22;7202;50.718;7.072;2023-02-01T07:43:47;5.60;99.90
14236;DHT22;7202;50.718;7.072;2023-02-01T07:46:19;5.90;99.90
14236;DHT22;7202;50.718;7.072;2023-02-01T07:48:48;5.90;99.90
14236;DHT22;7202;50.718;7.072;2023-02-01T07:51:17;5.80;99.90
14236;DHT22;7202;50.718;7.072;2023-02-01T07:53:46;5.90;99.90
14236;DHT22;7202;50.718;7.072;2023-02-01T07:56:16;6.00;99.90
14236;DHT22;7202;50.718;7.072;2023-02-01T07:58:47;6.00;99.90
14236;DHT22;7202;50.718;7.072;2023-02-01T08:01:21;6.00;99.90
14236;DHT22;7202;50.718;7.072;2023-02-01T08:03:53;6.10;99.90
14236;DHT22;7202;50.718;7.072;2023-02-01T08:06:23;6.10;99.90
14236;DHT22;7202;50.718;7.072;2023-02-01T08:08:53;6.10;99.90
14236;DHT22;7202;50.718;7.072;2023-02-01T08:11:22;6.10;99.90
14236;DHT22;7202;50.718;7.072;2023-02-01T08:13:52;6.10;99.90
14236;DHT22;7202;50.718;7.072;2023-02-01T08:16:22;6.10;99.90
14236;DHT22;7202;50.718;7.072;2023-02-01T08:18:52;6.20;99.90
14236;DHT22;7202;50.718;7.072;2023-02-01T08:21:23;6.20;99.90
14236;DHT22;7202;50.718;7.072;2023-02-01T08:23:52;6.20;99.90
14236;DHT22;7202;50.718;7.072;2023-02-01T08:26:22;6.30;99.90
14236;DHT22;7202;50.718;7.072;2023-02-01T08:28:53;6.40;99.90
14236;DHT22;7202;50.718;7.072;2023-02-01T08:31:25;6.40;99.90
14236;DHT22;7202;50.718;7.072;2023-02-01T08:33:56;6.50;99.90
14236;DHT22;7202;50.718;7.072;2023-02-01T08:36:26;6.40;99.90
14236;DHT22;7202;50.718;7.072;2023-02-01T08:38:55;6.50;99.90
14236;DHT22;7202;50.718;7.072;2023-02-01T08:41:27;6.50;99.90
14236;DHT22;7202;50.718;7.072;2023-02-01T08:43:57;6.60;99.90
14236;DHT22;7202;50.718;7.072;2023-02-01T08:46:28;6.60;99.90
14236;DHT22;7202;50.718;7.072;2023-02-01T08:48:57;6.60;99.90
14236;DHT22;7202;50.718;7.072;2023-02-01T08:51:26;6.70;99.90
14236;DHT22;7202;50.718;7.072;2023-02-01T08:53:54;6.70;99.90
14236;DHT22;7202;50.718;7.072;2023-02-01T08:56:23;6.70;99.90
14236;DHT22;7202;50.718;7.072;2023-02-01T08:58:52;6.80;99.90
14236;DHT22;7202;50.718;7.072;2023-02-01T09:01:20;6.80;99.90
14236;DHT22;7202;50.718;7.072;2023-02-01T09:03:50;6.90;99.90
14236;DHT22;7202;50.718;7.072;2023-02-01T09:06:19;7.00;99.90
14236;DHT22;7202;50.718;7.072;2023-02-01T09:08:48;6.90;99.90
14236;DHT22;7202;50.718;7.072;2023-02-01T09:11:18;6.90;99.90
14236;DHT22;7202;50.718;7.072;2023-02-01T09:13:47;7.00;99.90
14236;DHT22;7202;50.718;7.072;2023-02-01T09:16:16;6.90;99.90
14236;DHT22;7202;50.718;7.072;2023-02-01T09:18:45;7.00;99.90
14236;DHT22;7202;50.718;7.072;2023-02-01T09:21:35;7.10;99.90
14236;DHT22;7202;50.718;7.072;2023-02-01T09:24:04;7.10;99.90
14236;DHT22;7202;50.718;7.072;2023-02-01T09:26:34;7.10;99.90
14236;DHT22;7202;50.718;7.072;2023-02-01T09:29:03;7.10;99.90
14236;DHT22;7202;50.718;7.072;2023-02-01T09:31:33;7.10;99.90
14236;DHT22;7202;50.718;7.072;2023-02-01T09:34:02;7.20;99.90
14236;DHT22;7202;50.718;7.072;2023-02-01T09:36:31;7.30;99.90
14236;DHT22;7202;50.718;7.072;2023-02-01T09:39:02;7.30;99.90
14236;DHT22;7202;50.718;7.072;2023-02-01T09:41:38;7.30;99.90
14236;DHT22;7202;50.718;7.072;2023-02-01T09:44:21;7.40;99.90
14236;DHT22;7202;50.718;7.072;2023-02-01T09:46:59;7.30;99.90
14236;DHT22;7202;50.718;7.072;2023-02-01T09:49:30;7.30;99.90
14236;DHT22;7202;50.718;7.072;2023-02-01T09:52:02;7.40;99.90
14236;DHT22;7202;50.718;7.072;2023-02-01T09:54:41;7.40;99.90
14236;DHT22;7202;50.718;7.072;2023-02-01T09:57:17;7.30;99.90
14236;DHT22;7202;50.718;7.072;2023-02-01T09:59:51;7.40;99.90
14236;DHT22;7202;50.718;7.072;2023-02-01T10:02:26;7.40;99.90
14236;DHT22;7202;50.718;7.072;2023-02-01T10:04:57;7.50;99.90
14236;DHT22;7202;50.718;7.072;2023-02-01T10:07:33;7.60;99.90
14236;DHT22;7202;50.718;7.072;2023-02-01T10:10:13;7.70;99.90
14236;DHT22;7202;50.718;7.072;2023-02-01T10:13:05;7.60;99.90
14236;DHT22;7202;50.718;7.072;2023-02-01T10:15:52;7.60;99.90
14236;DHT22;7202;50.718;7.072;2023-02-01T10:18:59;7.70;99.90
14236;DHT22;7202;50.718;7.072;2023-02-01T10:21:39;7.70;99.90
14236;DHT22;7202;50.718;7.072;2023-02-01T10:24:24;7.70;99.90
14236;DHT22;7202;50.718;7.072;2023-02-01T10:27:01;7.70;99.90
14236;DHT22;7202;50.718;7.072;2023-02-01T10:29:34;7.70;99.90
14236;DHT22;7202;50.718;7.072;2023-02-01T10:32:11;7.70;99.90
14236;DHT22;7202;50.718;7.072;2023-02-01T10:34:42;7.70;99.90
14236;DHT22;7202;50.718;7.072;2023-02-01T10:37:20;7.80;99.90
14236;DHT22;7202;50.718;7.072;2023-02-01T10:39:54;7.80;99.90
14236;DHT22;7202;50.718;7.072;2023-02-01T10:42:27;7.80;99.90
14236;DHT22;7202;50.718;7.072;2023-02-01T10:44:59;7.90;99.90
14236;DHT22;7202;50.718;7.072;2023-02-01T10:47:28;8.00;99.90
14236;DHT22;7202;50.718;7.072;2023-02-01T10:50:03;8.00;99.90
14236;DHT22;7202;50.718;7.072;2023-02-01T10:52:39;8.00;99.90
14236;DHT22;7202;50.718;7.072;2023-02-01T10:55:30;8.10;99.90
14236;DHT22;7202;50.718;7.072;2023-02-01T10:58:03;8.20;99.90
14236;DHT22;7202;50.718;7.072;2023-02-01T11:00:42;8.20;99.90
14236;DHT22;7202;50.718;7.072;2023-02-01T11:03:32;8.30;99.90
14236;DHT22;7202;50.718;7.072;2023-02-01T11:06:04;8.40;99.90
14236;DHT22;7202;50.718;7.072;2023-02-01T11:08:42;8.40;99.90
14236;DHT22;7202;50.718;7.072;2023-02-01T11:11:12;8.50;99.90
14236;DHT22;7202;50.718;7.072;2023-02-01T11:13:42;8.60;99.90
14236;DHT22;7202;50.718;7.072;2023-02-01T11:16:13;8.50;99.90
14236;DHT22;7202;50.718;7.072;2023-02-01T11:18:43;8.60;99.90
14236;DHT22;7202;50.718;7.072;2023-02-01T11:21:11;8.60;99.90
14236;DHT22;7202;50.718;7.072;2023-02-01T11:23:44;8.60;99.90
14236;DHT22;7202;50.718;7.072;2023-02-01T11:26:19;8.60;99.90
14236;DHT22;7202;50.718;7.072;2023-02-01T11:28:56;8.60;99.90
14236;DHT22;7202;50.718;7.072;2023-02-01T11:31:27;8.60;99.90
14236;DHT22;7202;50.718;7.072;2023-02-01T11:34:00;8.60;99.90
14236;DHT22;7202;50.718;7.072;2023-02-01T11:36:32;8.60;99.90
14236;DHT22;7202;50.718;7.072;2023-02-01T11:39:17;8.60;99.90
14236;DHT22;7202;50.718;7.072;2023-02-01T11:41:58;8.60;99.90
14236;DHT22;7202;50.718;7.072;2023-02-01T11:44:33;8.70;99.90
14236;DHT22;7202;50.718;7.072;2023-02-01T11:47:23;8.70;99.90
14236;DHT22;7202;50.718;7.072;2023-02-01T11:49:54;8.80;99.90
14236;DHT22;7202;50.718;7.072;2023-02-01T11:52:45;8.80;99.90
14236;DHT22;7202;50.718;7.072;2023-02-01T11:55:33;8.80;99.90
14236;DHT22;7202;50.718;7.072;2023-02-01T12:01:24;8.90;99.90
14236;DHT22;7202;50.718;7.072;2023-02-01T12:07:04;8.90;99.90
14236;DHT22;7202;50.718;7.072;2023-02-01T12:09:45;8.90;99.90
14236;DHT22;7202;50.718;7.072;2023-02-01T12:12:22;8.90;99.90
14236;DHT22;7202;50.718;7.072;2023-02-01T12:15:05;8.90;99.90
14236;DHT22;7202;50.718;7.072;2023-02-01T12:17:57;8.80;99.90
14236;DHT22;7202;50.718;7.072;2023-02-01T12:20:53;8.80;99.90
14236;DHT22;7202;50.718;7.072;2023-02-01T12:23:37;8.80;99.90
14236;DHT22;7202;50.718;7.072;2023-02-01T12:26:27;8.80;99.90
14236;DHT22;7202;50.718;7.072;2023-02-01T12:29:12;8.80;99.90
14236;DHT22;7202;50.718;7.072;2023-02-01T12:31:52;8.70;99.90
14236;DHT22;7202;50.718;7.072;2023-02-01T12:34:46;8.60;99.90
14236;DHT22;7202;50.718;7.072;2023-02-01T12:37:27;8.60;99.90
14236;DHT22;7202;50.718;7.072;2023-02-01T12:40:04;8.60;99.90
14236;DHT22;7202;50.718;7.072;2023-02-01T12:42:37;8.50;99.90
14236;DHT22;7202;50.718;7.072;2023-02-01T12:45:15;8.50;99.90
14236;DHT22;7202;50.718;7.072;2023-02-01T12:47:50;8.50;99.90
14236;DHT22;7202;50.718;7.072;2023-02-01T12:50:25;8.50;99.90
14236;DHT22;7202;50.718;7.072;2023-02-01T12:53:02;8.60;99.90
14236;DHT22;7202;50.718;7.072;2023-02-01T12:55:37;8.60;99.90
14236;DHT22;7202;50.718;7.072;2023-02-01T12:58:25;8.60;99.90
14236;DHT22;7202;50.718;7.072;2023-02-01T13:00:59;8.60;99.90
14236;DHT22;7202;50.718;7.072;2023-02-01T13:03:34;8.60;99.90
14236;DHT22;7202;50.718;7.072;2023-02-01T13:06:09;8.60;99.90
14236;DHT22;7202;50.718;7.072;2023-02-01T13:08:45;8.60;99.90
14236;DHT22;7202;50.718;7.072;2023-02-01T13:11:20;8.60;99.90
14236;DHT22;7202;50.718;7.072;2023-02-01T13:13:59;8.60;99.90
14236;DHT22;7202;50.718;7.072;2023-02-01T13:16:31;8.60;99.90
14236;DHT22;7202;50.718;7.072;2023-02-01T13:19:05;8.70;99.90
14236;DHT22;7202;50.718;7.072;2023-02-01T13:21:42;8.70;99.90
14236;DHT22;7202;50.718;7.072;2023-02-01T13:24:24;8.70;99.90
14236;DHT22;7202;50.718;7.072;2023-02-01T13:26:56;8.70;99.90
14236;DHT22;7202;50.718;7.072;2023-02-01T13:29:25;8.70;99.90
14236;DHT22;7202;50.718;7.072;2023-02-01T13:32:16;8.60;99.90
14236;DHT22;7202;50.718;7.072;2023-02-01T13:35:21;8.60;99.90
14236;DHT22;7202;50.718;7.072;2023-02-01T13:38:08;8.60;99.90
14236;DHT22;7202;50.718;7.072;2023-02-01T13:40:41;8.60;99.90
14236;DHT22;7202;50.718;7.072;2023-02-01T13:43:15;8.50;99.90
14236;DHT22;7202;50.718;7.072;2023-02-01T13:45:49;8.50;99.90
14236;DHT22;7202;50.718;7.072;2023-02-01T13:48:22;8.40;99.90
14236;DHT22;7202;50.718;7.072;2023-02-01T13:50:54;8.40;99.90
14236;DHT22;7202;50.718;7.072;2023-02-01T13:53:27;8.40;99.90
14236;DHT22;7202;50.718;7.072;2023-02-01T13:55:59;8.40;99.90
14236;DHT22;7202;50.718;7.072;2023-02-01T13:58:32;8.40;99.90
14236;DHT22;7202;50.718;7.072;2023-02-01T14:01:33;8.30;99.90
14236;DHT22;7202;50.718;7.072;2023-02-01T14:04:04;8.20;99.90
14236;DHT22;7202;50.718;7.072;2023-02-01T14:06:43;8.20;99.90
14236;DHT22;7202;50.718;7.072;2023-02-01T14:09:32;8.20;99.90
14236;DHT22;7202;50.718;7.072;2023-02-01T14:15:24;8.20;99.90
14236;DHT22;7202;50.718;7.072;2023-02-01T14:17:54;8.20;99.90
14236;DHT22;7202;50.718;7.072;2023-02-01T14:20:45;8.30;99.90
14236;DHT22;7202;50.718;7.072;2023-02-01T14:23:19;8.30;99.90
14236;DHT22;7202;50.718;7.072;2023-02-01T14:26:05;8.30;99.90
14236;DHT22;7202;50.718;7.072;2023-02-01T14:28:38;8.30;99.90
14236;DHT22;7202;50.718;7.072;2023-02-01T14:31:52;8.40;99.90
14236;DHT22;7202;50.718;7.072;2023-02-01T14:34:28;8.40;99.90
14236;DHT22;7202;50.718;7.072;2023-02-01T14:37:00;8.40;99.90
14236;DHT22;7202;50.718;7.072;2023-02-01T14:39:37;8.40;99.90
14236;DHT22;7202;50.718;7.072;2023-02-01T14:42:21;8.40;99.90
14236;DHT22;7202;50.718;7.072;2023-02-01T14:44:52;8.60;99.90
14236;DHT22;7202;50.718;7.072;2023-02-01T14:47:31;8.40;99.90
14236;DHT22;7202;50.718;7.072;2023-02-01T14:53:17;8.60;99.90
14236;DHT22;7202;50.718;7.072;2023-02-01T14:55:50;8.60;99.90
14236;DHT22;7202;50.718;7.072;2023-02-01T14:58:35;8.60;99.90
14236;DHT22;7202;50.718;7.072;2023-02-01T15:01:17;8.60;99.90
14236;DHT22;7202;50.718;7.072;2023-02-01T15:03:52;8.60;99.90
14236;DHT22;7202;50.718;7.072;2023-02-01T15:06:26;8.60;99.90
14236;DHT22;7202;50.718;7.072;2023-02-01T15:08:58;8.50;99.90
14236;DHT22;7202;50.718;7.072;2023-02-01T15:11:28;8.60;99.90
14236;DHT22;7202;50.718;7.072;2023-02-01T15:13:58;8.60;99.90
14236;DHT22;7202;50.718;7.072;2023-02-01T15:16:27;8.60;99.90
14236;DHT22;7202;50.718;7.072;2023-02-01T15:19:10;8.60;99.90
14236;DHT22;7202;50.718;7.072;2023-02-01T15:21:46;8.60;99.90
14236;DHT22;7202;50.718;7.072;2023-02-01T15:24:20;8.60;99.90
14236;DHT22;7202;50.718;7.072;2023-02-01T15:26:49;8.60;99.90
14236;DHT22;7202;50.718;7.072;2023-02-01T15:29:20;8.60;99.90
14236;DHT22;7202;50.718;7.072;2023-02-01T15:31:50;8.60;99.90
14236;DHT22;7202;50.718;7.072;2023-02-01T15:34:20;8.60;99.90
14236;DHT22;7202;50.718;7.072;2023-02-01T15:36:50;8.70;99.90
14236;DHT22;7202;50.718;7.072;2023-02-01T15:39:34;8.70;99.90
14236;DHT22;7202;50.718;7.072;2023-02-01T15:42:11;8.70;99.90
14236;DHT22;7202;50.718;7.072;2023-02-01T15:44:45;8.60;99.90
14236;DHT22;7202;50.718;7.072;2023-02-01T15:47:16;8.60;99.90
14236;DHT22;7202;50.718;7.072;2023-02-01T15:49:47;8.60;99.90
14236;DHT22;7202;50.718;7.072;2023-02-01T15:52:24;8.60;99.90
14236;DHT22;7202;50.718;7.072;2023-02-01T15:54:56;8.50;99.90
14236;DHT22;7202;50.718;7.072;2023-02-01T15:57:28;8.60;99.90
14236;DHT22;7202;50.718;7.072;2023-02-01T16:00:03;8.60;99.90
14236;DHT22;7202;50.718;7.072;2023-02-01T16:02:42;8.60;99.90
14236;DHT22;7202;50.718;7.072;2023-02-01T16:05:33;8.50;99.90
14236;DHT22;7202;50.718;7.072;2023-02-01T16:08:06;8.50;99.90
14236;DHT22;7202;50.718;7.072;2023-02-01T16:10:40;8.50;99.90
14236;DHT22;7202;50.718;7.072;2023-02-01T16:13:10;8.40;99.90
14236;DHT22;7202;50.718;7.072;2023-02-01T16:15:40;8.30;99.90
14236;DHT22;7202;50.718;7.072;2023-02-01T16:18:10;8.30;99.90
14236;DHT22;7202;50.718;7.072;2023-02-01T16:20:40;8.20;99.90
14236;DHT22;7202;50.718;7.072;2023-02-01T16:23:09;8.10;99.90
14236;DHT22;7202;50.718;7.072;2023-02-01T16:25:39;8.10;99.90
14236;DHT22;7202;50.718;7.072;2023-02-01T16:28:08;8.00;99.90
14236;DHT22;7202;50.718;7.072;2023-02-01T16:30:36;7.90;99.90
14236;DHT22;7202;50.718;7.072;2023-02-01T16:33:13;7.80;99.90
14236;DHT22;7202;50.718;7.072;2023-02-01T16:35:45;7.80;99.90
14236;DHT22;7202;50.718;7.072;2023-02-01T16:38:16;7.70;99.90
14236;DHT22;7202;50.718;7.072;2023-02-01T16:40:46;7.70;99.90
14236;DHT22;7202;50.718;7.072;2023-02-01T16:43:16;7.60;99.90
14236;DHT22;7202;50.718;7.072;2023-02-01T16:45:47;7.60;99.90
14236;DHT22;7202;50.718;7.072;2023-02-01T16:48:22;7.60;99.90
14236;DHT22;7202;50.718;7.072;2023-02-01T16:50:55;7.50;99.90
14236;DHT22;7202;50.718;7.072;2023-02-01T16:53:25;7.50;99.90
14236;DHT22;7202;50.718;7.072;2023-02-01T16:55:55;7.40;99.90
14236;DHT22;7202;50.718;7.072;2023-02-01T16:58:25;7.40;99.90
14236;DHT22;7202;50.718;7.072;2023-02-01T17:00:54;7.30;99.90
14236;DHT22;7202;50.718;7.072;2023-02-01T17:03:24;7.30;99.90